Terminal Aerodrome Forecast
Issued by NWS

Home | Current Version | Previous Version | Text Only | Print | Product List | Glossary On
Versions: 1 2 3 4 5 6 7 8 9 10 11 12 13
000
FTAK31 PANC 182333
TAFAAQ
TAF
PAAQ 182333Z 1900/1924 14015G25KT P6SM VCSH SCT040 BKN070
     FM190300 14012G22KT P6SM SCT060 BKN100
     FM190600 36005KT P6SM FEW060 SCT120=

USA.gov is the U.S. government's official web portal to all federal, state and local government web resources and services.